^^
Datos históricos de la estación: Murcia-Puente Tocinos
Diario Informe para Diciembre 19, 2019 Unidades:  Ambas    Ingés   Métrico
Diario Semanal Mensual Anual
  Máxima: Mínima: Promedio:
Temperatura: 54.5 °F /  12.5 °C 44.1 °F /  6.7 °C 49.3 °F /  9.6 °C
Punto de rocio: 45.7 °F /  7.6 °C 37.2 °F /  2.9 °C 41.9 °F /  5.5 °C
Humedad: 85.5% 65% 76%
Velocidad viento: 8.1mph /  13km/h - 3.5mph /  5.7km/h
Racha viento: 14mph /  22.5km/h - -
Viento- - SSO
Presión: 30.1 in /  1018.5 hPa 29.8 in /  1010.2 hPa -
Precipitación: 0 in /  0.0 mm    
 
 
Tabla de datos para Diciembre 19, 2019
Hora Temperatura Punto de rocio Presión Viento Velocidad viento Racha viento Humedad Intensidad lluvia(por hora) Nubes
00:04 49.5 °F /  9.7 °C 43.2 °F /  6.2 °C 30.1in /  1018.5hPa SSO 3.6mph /  5.8km/h 7mph /  11.3km/h 78.5% 0in /  0.0mm
00:09 49.5 °F /  9.7 °C 43.2 °F /  6.2 °C 30.1in /  1018.5hPa Sur 4mph /  6.5km/h 6mph /  9.7km/h 79% 0in /  0.0mm
00:14 49.5 °F /  9.7 °C 43.2 °F /  6.2 °C 30.1in /  1018.4hPa SSE 3.5mph /  5.7km/h 6mph /  9.7km/h 79% 0in /  0.0mm
00:19 49.3 °F /  9.6 °C 43 °F /  6.1 °C 30.1in /  1018.4hPa SSE 3.1mph /  5km/h 5mph /  8km/h 79% 0in /  0.0mm
00:24 49.1 °F /  9.5 °C 43 °F /  6.1 °C 30.1in /  1018.4hPa Sur 3mph /  4.8km/h 5mph /  8km/h 79.3% 0in /  0.0mm
00:29 49.1 °F /  9.5 °C 43.2 °F /  6.2 °C 30.1in /  1018.1hPa SSO 2.9mph /  4.7km/h 5.2mph /  8.4km/h 80% 0in /  0.0mm
00:34 49.1 °F /  9.5 °C 43.2 °F /  6.2 °C 30.1in /  1018.1hPa SSE 3mph /  4.8km/h 5mph /  8km/h 80% 0in /  0.0mm
00:39 48.9 °F /  9.4 °C 43 °F /  6.1 °C 30.1in /  1018.1hPa Sur 3.1mph /  5km/h 5.4mph /  8.7km/h 80% 0in /  0.0mm
00:44 48.9 °F /  9.4 °C 43 °F /  6.1 °C 30.1in /  1018.0hPa Sur 3.4mph /  5.4km/h 6.2mph /  10km/h 80% 0in /  0.0mm
00:49 48.7 °F /  9.3 °C 42.8 °F /  6 °C 30.1in /  1018.0hPa Sur 3.6mph /  5.8km/h 6.2mph /  10km/h 80% 0in /  0.0mm
00:54 48.7 °F /  9.3 °C 42.8 °F /  6 °C 30.1in /  1018.0hPa Sur 3.8mph /  6.1km/h 6mph /  9.7km/h 80% 0in /  0.0mm
00:59 48.7 °F /  9.3 °C 42.8 °F /  6 °C 30.1in /  1017.9hPa SSO 4mph /  6.5km/h 6.2mph /  10km/h 80.2% 0in /  0.0mm
01:04 48.7 °F /  9.3 °C 43.2 °F /  6.2 °C 30.1in /  1017.9hPa SSO 4mph /  6.5km/h 8.1mph /  13km/h 80.9% 0in /  0.0mm
01:09 48.6 °F /  9.2 °C 43 °F /  6.1 °C 30.1in /  1017.9hPa SSO 4mph /  6.5km/h 8.1mph /  13km/h 80.8% 0in /  0.0mm
01:14 48.6 °F /  9.2 °C 43 °F /  6.1 °C 30.1in /  1017.8hPa SSO 4.3mph /  7km/h 8.1mph /  13km/h 81% 0in /  0.0mm
01:19 48.6 °F /  9.2 °C 43 °F /  6.1 °C 30.1in /  1017.8hPa SSO 4.7mph /  7.6km/h 8mph /  12.9km/h 81% 0in /  0.0mm
01:24 48.6 °F /  9.2 °C 43 °F /  6.1 °C 30.1in /  1017.8hPa SSO 4.5mph /  7.3km/h 7.4mph /  11.9km/h 81% 0in /  0.0mm
01:29 48.4 °F /  9.1 °C 42.6 °F /  5.9 °C 30.1in /  1017.6hPa Sur 4.3mph /  6.9km/h 7.4mph /  11.9km/h 80.4% 0in /  0.0mm
01:34 48.4 °F /  9.1 °C 42.6 °F /  5.9 °C 30.1in /  1017.6hPa SSE 4.3mph /  6.9km/h 7mph /  11.3km/h 80.2% 0in /  0.0mm
01:39 48.2 °F /  9 °C 42.4 °F /  5.8 °C 30.1in /  1017.6hPa Sur 4.3mph /  6.9km/h 6mph /  9.7km/h 80.7% 0in /  0.0mm
01:44 48 °F /  8.9 °C 42.4 °F /  5.8 °C 30.1in /  1017.5hPa Sur 3.7mph /  6km/h 5.2mph /  8.4km/h 80.8% 0in /  0.0mm
01:49 48 °F /  8.9 °C 42.4 °F /  5.8 °C 30.1in /  1017.5hPa SSE 3.1mph /  5km/h 5mph /  8km/h 81% 0in /  0.0mm
01:54 47.8 °F /  8.8 °C 42.3 °F /  5.7 °C 30.1in /  1017.5hPa Sur 3.1mph /  5km/h 5.4mph /  8.7km/h 81% 0in /  0.0mm
01:59 47.7 °F /  8.7 °C 42.1 °F /  5.6 °C 30in /  1017.4hPa SSO 3.1mph /  5km/h 6mph /  9.7km/h 81% 0in /  0.0mm
02:04 47.7 °F /  8.7 °C 42.1 °F /  5.6 °C 30in /  1017.4hPa SO 3.6mph /  5.8km/h 6mph /  9.7km/h 81% 0in /  0.0mm
02:09 47.7 °F /  8.7 °C 41.9 °F /  5.5 °C 30in /  1017.4hPa Sur 4mph /  6.5km/h 6mph /  9.7km/h 80.4% 0in /  0.0mm
02:14 47.7 °F /  8.7 °C 41.7 °F /  5.4 °C 30in /  1017.4hPa SSE 3.5mph /  5.6km/h 5mph /  8km/h 80% 0in /  0.0mm
02:19 47.7 °F /  8.7 °C 41.7 °F /  5.4 °C 30in /  1017.4hPa SSE 2.9mph /  4.7km/h 5.9mph /  9.5km/h 80% 0in /  0.0mm
02:24 47.5 °F /  8.6 °C 41.5 °F /  5.3 °C 30in /  1017.4hPa SSE 2.9mph /  4.7km/h 6mph /  9.7km/h 80% 0in /  0.0mm
02:29 47.1 °F /  8.4 °C 41.2 °F /  5.1 °C 30in /  1017.3hPa SSE 2.9mph /  4.7km/h 6mph /  9.7km/h 80% 0in /  0.0mm
02:34 46.8 °F /  8.2 °C 41.2 °F /  5.1 °C 30in /  1017.3hPa Sur 3.2mph /  5.2km/h 6.9mph /  11.1km/h 80.4% 0in /  0.0mm
02:39 46.8 °F /  8.2 °C 41 °F /  5 °C 30.1in /  1017.6hPa Sur 3.6mph /  5.8km/h 8.1mph /  13km/h 80.4% 0in /  0.0mm
02:44 46.6 °F /  8.1 °C 40.5 °F /  4.7 °C 30.1in /  1017.6hPa Sur 3.8mph /  6.1km/h 8mph /  12.9km/h 79.5% 0in /  0.0mm
02:49 46.6 °F /  8.1 °C 40.3 °F /  4.6 °C 30.1in /  1017.6hPa SSE 4mph /  6.5km/h 5.9mph /  9.5km/h 78.9% 0in /  0.0mm
02:54 46.6 °F /  8.1 °C 40.1 °F /  4.5 °C 30.1in /  1017.6hPa SSE 4mph /  6.5km/h 6.9mph /  11.1km/h 78% 0in /  0.0mm
02:59 46.6 °F /  8.1 °C 40.1 °F /  4.5 °C 30.1in /  1017.6hPa Sur 4mph /  6.5km/h 7mph /  11.3km/h 78% 0in /  0.0mm
03:04 46.4 °F /  8 °C 39.9 °F /  4.4 °C 30.1in /  1017.6hPa Sur 4mph /  6.5km/h 6mph /  9.7km/h 78% 0in /  0.0mm
03:09 46.6 °F /  8.1 °C 40.1 °F /  4.5 °C 30.1in /  1017.6hPa SSE 4mph /  6.5km/h 6.2mph /  10km/h 78% 0in /  0.0mm
03:14 46.4 °F /  8 °C 39.9 °F /  4.4 °C 30.1in /  1017.5hPa SSE 4mph /  6.5km/h 6.9mph /  11.1km/h 78% 0in /  0.0mm
03:19 46.2 °F /  7.9 °C 40.1 °F /  4.5 °C 30.1in /  1017.5hPa SE 4mph /  6.5km/h 7mph /  11.3km/h 78.6% 0in /  0.0mm
03:24 46 °F /  7.8 °C 39.9 °F /  4.4 °C 30.1in /  1017.5hPa SSO 3.5mph /  5.7km/h 5.4mph /  8.7km/h 79% 0in /  0.0mm
03:29 46 °F /  7.8 °C 40.1 °F /  4.5 °C 30in /  1017.3hPa OSO 3.1mph /  5km/h 6mph /  9.7km/h 79.6% 0in /  0.0mm
03:34 46 °F /  7.8 °C 39.9 °F /  4.4 °C 30in /  1017.3hPa SO 3.1mph /  5km/h 5mph /  8km/h 79% 0in /  0.0mm
03:39 46 °F /  7.8 °C 39.7 °F /  4.3 °C 30in /  1017.3hPa SO 3.1mph /  5km/h 5mph /  8km/h 78.6% 0in /  0.0mm
03:44 46 °F /  7.8 °C 39.6 °F /  4.2 °C 30in /  1017.3hPa OSO 2.7mph /  4.4km/h 7.4mph /  11.9km/h 77.7% 0in /  0.0mm
03:49 46 °F /  7.8 °C 39 °F /  3.9 °C 30in /  1017.3hPa OSO 2.4mph /  3.9km/h 7mph /  11.3km/h 76.4% 0in /  0.0mm
03:54 45.9 °F /  7.7 °C 38.5 °F /  3.6 °C 30.1in /  1017.6hPa SO 2.7mph /  4.4km/h 7mph /  11.3km/h 75.1% 0in /  0.0mm
03:59 46 °F /  7.8 °C 38.8 °F /  3.8 °C 30.1in /  1017.6hPa SE 3.1mph /  5km/h 6.2mph /  10km/h 76% 0in /  0.0mm
04:04 45.9 °F /  7.7 °C 39.2 °F /  4 °C 30.1in /  1017.6hPa SSE 3.4mph /  5.4km/h 8.1mph /  13km/h 77.6% 0in /  0.0mm
04:09 45.5 °F /  7.5 °C 39 °F /  3.9 °C 30.1in /  1017.7hPa Sur 3.6mph /  5.8km/h 8mph /  12.9km/h 78% 0in /  0.0mm
04:14 45.1 °F /  7.3 °C 38.8 °F /  3.8 °C 30.1in /  1017.7hPa Sur 4.4mph /  7.1km/h 9.7mph /  15.6km/h 78% 0in /  0.0mm
04:19 45 °F /  7.2 °C 38.7 °F /  3.7 °C 30.1in /  1017.7hPa SSE 5.2mph /  8.4km/h 10mph /  16.1km/h 78.5% 0in /  0.0mm
04:24 44.6 °F /  7 °C 38.7 °F /  3.7 °C 30.1in /  1017.7hPa SSE 5.7mph /  9.2km/h 10.4mph /  16.7km/h 79.4% 0in /  0.0mm
04:29 44.2 °F /  6.8 °C 38.7 °F /  3.7 °C 30.1in /  1017.7hPa Sur 6.2mph /  10km/h 10mph /  16.1km/h 80.7% 0in /  0.0mm
04:34 44.2 °F /  6.8 °C 38.8 °F /  3.8 °C 30.1in /  1017.7hPa Sur 6mph /  9.7km/h 8.1mph /  13km/h 81.2% 0in /  0.0mm
04:39 44.2 °F /  6.8 °C 39 °F /  3.9 °C 30.1in /  1017.7hPa SO 5.9mph /  9.5km/h 8mph /  12.9km/h 81.7% 0in /  0.0mm
04:44 44.4 °F /  6.9 °C 39 °F /  3.9 °C 30.1in /  1017.6hPa SSO 4.7mph /  7.5km/h 7mph /  11.3km/h 81% 0in /  0.0mm
04:49 44.4 °F /  6.9 °C 38.7 °F /  3.7 °C 30.1in /  1017.6hPa SSO 3.6mph /  5.8km/h 5mph /  8km/h 80.3% 0in /  0.0mm
04:54 44.6 °F /  7 °C 38.8 °F /  3.8 °C 30.1in /  1017.6hPa SSO 3.2mph /  5.2km/h 5mph /  8km/h 79.9% 0in /  0.0mm
04:59 45 °F /  7.2 °C 38.7 °F /  3.7 °C 30in /  1017.3hPa Sur 2.9mph /  4.7km/h 6.2mph /  10km/h 79% 0in /  0.0mm
05:04 45 °F /  7.2 °C 38.7 °F /  3.7 °C 30in /  1017.3hPa SO 3mph /  4.8km/h 6mph /  9.7km/h 78.7% 0in /  0.0mm
05:09 45 °F /  7.2 °C 38.5 °F /  3.6 °C 30in /  1017.4hPa OSO 3.1mph /  5km/h 5mph /  8km/h 78% 0in /  0.0mm
05:14 45 °F /  7.2 °C 38.3 °F /  3.5 °C 30in /  1017.4hPa OSO 3.1mph /  5km/h 5mph /  8km/h 77.2% 0in /  0.0mm
05:19 44.8 °F /  7.1 °C 38.1 °F /  3.4 °C 30in /  1017.4hPa SO 3.1mph /  5km/h 5.2mph /  8.4km/h 77% 0in /  0.0mm
05:24 44.8 °F /  7.1 °C 37.9 °F /  3.3 °C 30.1in /  1017.5hPa SO 3.1mph /  5km/h 5mph /  8km/h 77% 0in /  0.0mm
05:29 45 °F /  7.2 °C 38.1 °F /  3.4 °C 30.1in /  1017.5hPa Sur 3.1mph /  5km/h 5.8mph /  9.3km/h 77% 0in /  0.0mm
05:34 45.1 °F /  7.3 °C 38.3 °F /  3.5 °C 30.1in /  1017.5hPa SE 3.1mph /  5km/h 6mph /  9.7km/h 77% 0in /  0.0mm
05:39 45.1 °F /  7.3 °C 38.3 °F /  3.5 °C 30.1in /  1017.5hPa SSE 3.1mph /  5km/h 6.4mph /  10.3km/h 77% 0in /  0.0mm
05:44 45 °F /  7.2 °C 38.3 °F /  3.5 °C 30in /  1017.3hPa SE 3.7mph /  6km/h 7.4mph /  11.9km/h 77.5% 0in /  0.0mm
05:49 44.4 °F /  6.9 °C 38.1 °F /  3.4 °C 30in /  1017.3hPa SSE 4.3mph /  6.9km/h 8.1mph /  13km/h 78.5% 0in /  0.0mm
05:54 44.2 °F /  6.8 °C 38.1 °F /  3.4 °C 30in /  1017.3hPa Sur 4.5mph /  7.3km/h 8mph /  12.9km/h 79% 0in /  0.0mm
05:59 44.1 °F /  6.7 °C 37.9 °F /  3.3 °C 30in /  1017.2hPa SSO 4.7mph /  7.6km/h 6mph /  9.7km/h 79% 0in /  0.0mm
06:04 44.2 °F /  6.8 °C 38.1 °F /  3.4 °C 30in /  1017.2hPa Sur 4.3mph /  7km/h 6.9mph /  11.1km/h 79% 0in /  0.0mm
06:09 44.2 °F /  6.8 °C 38.1 °F /  3.4 °C 30in /  1017.2hPa Sur 4mph /  6.5km/h 8.1mph /  13km/h 79% 0in /  0.0mm
06:14 44.4 °F /  6.9 °C 37.9 °F /  3.3 °C 30in /  1017.1hPa Sur 4.6mph /  7.4km/h 8.1mph /  13km/h 78% 0in /  0.0mm
06:19 44.4 °F /  6.9 °C 37.9 °F /  3.3 °C 30in /  1017.1hPa SO 5.2mph /  8.4km/h 8mph /  12.9km/h 78% 0in /  0.0mm
06:24 44.6 °F /  7 °C 37.9 °F /  3.3 °C 30in /  1017.3hPa SO 4.3mph /  7km/h 8.5mph /  13.7km/h 77.6% 0in /  0.0mm
06:29 45 °F /  7.2 °C 37.9 °F /  3.3 °C 30in /  1017.3hPa SO 3.6mph /  5.8km/h 9.2mph /  14.8km/h 76.5% 0in /  0.0mm
06:34 45 °F /  7.2 °C 37.9 °F /  3.3 °C 30in /  1017.3hPa SSO 4.5mph /  7.2km/h 9mph /  14.5km/h 76% 0in /  0.0mm
06:39 45.1 °F /  7.3 °C 37.8 °F /  3.2 °C 30.1in /  1017.5hPa SSO 5.2mph /  8.4km/h 7mph /  11.3km/h 75% 0in /  0.0mm
06:44 45.1 °F /  7.3 °C 37.4 °F /  3 °C 30.1in /  1017.5hPa SSO 4.7mph /  7.6km/h 7.4mph /  11.9km/h 74.3% 0in /  0.0mm
06:49 45.1 °F /  7.3 °C 37.2 °F /  2.9 °C 30.1in /  1017.5hPa Sur 4.3mph /  6.9km/h 7mph /  11.3km/h 74% 0in /  0.0mm
06:54 45.1 °F /  7.3 °C 37.6 °F /  3.1 °C 30.1in /  1017.5hPa Sur 4.2mph /  6.7km/h 6mph /  9.7km/h 74.7% 0in /  0.0mm
06:59 45 °F /  7.2 °C 37.6 °F /  3.1 °C 30in /  1017.4hPa Sur 4mph /  6.5km/h 6.9mph /  11.1km/h 75% 0in /  0.0mm
07:04 45 °F /  7.2 °C 37.6 °F /  3.1 °C 30in /  1017.4hPa Sur 4.2mph /  6.7km/h 7mph /  11.3km/h 75.5% 0in /  0.0mm
07:09 44.8 °F /  7.1 °C 37.8 °F /  3.2 °C 30.1in /  1017.5hPa SSE 4.3mph /  6.9km/h 7mph /  11.3km/h 76% 0in /  0.0mm
07:14 44.8 °F /  7.1 °C 37.8 °F /  3.2 °C 30.1in /  1017.5hPa SSE 4.2mph /  6.7km/h 6mph /  9.7km/h 76.4% 0in /  0.0mm
07:19 44.6 °F /  7 °C 37.9 °F /  3.3 °C 30.1in /  1017.5hPa SSE 4mph /  6.5km/h 6.4mph /  10.3km/h 77.1% 0in /  0.0mm
07:24 44.4 °F /  6.9 °C 37.9 °F /  3.3 °C 30.1in /  1017.5hPa SSE 4mph /  6.5km/h 7mph /  11.3km/h 78% 0in /  0.0mm
07:29 44.2 °F /  6.8 °C 37.8 °F /  3.2 °C 30.1in /  1017.5hPa Sur 4mph /  6.5km/h 7mph /  11.3km/h 78% 0in /  0.0mm
07:34 44.2 °F /  6.8 °C 38.1 °F /  3.4 °C 30.1in /  1017.5hPa Sur 4.2mph /  6.7km/h 7mph /  11.3km/h 78.8% 0in /  0.0mm
07:39 44.2 °F /  6.8 °C 38.1 °F /  3.4 °C 30.1in /  1017.8hPa Sur 4.3mph /  6.9km/h 7mph /  11.3km/h 79% 0in /  0.0mm
07:44 44.2 °F /  6.8 °C 38.1 °F /  3.4 °C 30.1in /  1017.8hPa Sur 4.2mph /  6.7km/h 6.9mph /  11.1km/h 79% 0in /  0.0mm
07:49 44.4 °F /  6.9 °C 38.3 °F /  3.5 °C 30.1in /  1017.8hPa SSO 4mph /  6.5km/h 7mph /  11.3km/h 79% 0in /  0.0mm
07:54 44.8 °F /  7.1 °C 38.5 °F /  3.6 °C 30.1in /  1018.0hPa SSO 4.2mph /  6.7km/h 6.2mph /  10km/h 78.1% 0in /  0.0mm
07:59 45.1 °F /  7.3 °C 38.5 °F /  3.6 °C 30.1in /  1018.0hPa SSO 4.3mph /  6.9km/h 6.2mph /  10km/h 77.1% 0in /  0.0mm
08:04 45.5 °F /  7.5 °C 38.3 °F /  3.5 °C 30.1in /  1018.0hPa SSE 3.9mph /  6.3km/h 6.4mph /  10.3km/h 76.2% 0in /  0.0mm
08:09 45.5 °F /  7.5 °C 38.5 °F /  3.6 °C 30.1in /  1018.0hPa SSO 3.6mph /  5.8km/h 8.1mph /  13km/h 76% 0in /  0.0mm
08:14 45.5 °F /  7.5 °C 38.3 °F /  3.5 °C 30.1in /  1018.0hPa SSO 4.1mph /  6.6km/h 8mph /  12.9km/h 75.7% 0in /  0.0mm
08:19 45.7 °F /  7.6 °C 38.1 °F /  3.4 °C 30.1in /  1018.0hPa SSO 4.7mph /  7.6km/h 7mph /  11.3km/h 75% 0in /  0.0mm
08:24 45.9 °F /  7.7 °C 37.9 °F /  3.3 °C 30.1in /  1018.2hPa SO 4.5mph /  7.2km/h 7mph /  11.3km/h 74% 0in /  0.0mm
08:29 45.9 °F /  7.7 °C 37.9 °F /  3.3 °C 30.1in /  1018.2hPa SO 4.3mph /  6.9km/h 7mph /  11.3km/h 74% 0in /  0.0mm
08:34 45.9 °F /  7.7 °C 37.8 °F /  3.2 °C 30.1in /  1018.2hPa Sur 4mph /  6.4km/h 6.9mph /  11.1km/h 73.2% 0in /  0.0mm
08:39 45.9 °F /  7.7 °C 37.9 °F /  3.3 °C 30.1in /  1018.2hPa SE 3.6mph /  5.8km/h 7mph /  11.3km/h 74% 0in /  0.0mm
08:44 45.5 °F /  7.5 °C 37.9 °F /  3.3 °C 30.1in /  1017.8hPa SSE 3.9mph /  6.3km/h 7mph /  11.3km/h 74.9% 0in /  0.0mm
08:49 45.1 °F /  7.3 °C 38.1 °F /  3.4 °C 30.1in /  1017.8hPa SSE 4.3mph /  6.9km/h 6mph /  9.7km/h 76% 0in /  0.0mm
08:54 45 °F /  7.2 °C 38.1 °F /  3.4 °C 30.1in /  1017.8hPa SE 4mph /  6.4km/h 6mph /  9.7km/h 76.8% 0in /  0.0mm
08:59 44.8 °F /  7.1 °C 38.1 °F /  3.4 °C 30.1in /  1017.5hPa SSO 3.6mph /  5.8km/h 5.9mph /  9.5km/h 77.6% 0in /  0.0mm
09:04 44.8 °F /  7.1 °C 38.3 °F /  3.5 °C 30.1in /  1017.5hPa OSO 3.2mph /  5.2km/h 6mph /  9.7km/h 78% 0in /  0.0mm
09:09 45 °F /  7.2 °C 38.3 °F /  3.5 °C 30.1in /  1018.1hPa OSO 2.9mph /  4.7km/h 9.7mph /  15.6km/h 77.8% 0in /  0.0mm
09:14 45.1 °F /  7.3 °C 38.3 °F /  3.5 °C 30.1in /  1018.1hPa SSO 4mph /  6.5km/h 10mph /  16.1km/h 76.8% 0in /  0.0mm
09:19 45.5 °F /  7.5 °C 38.1 °F /  3.4 °C 30.1in /  1018.1hPa Sur 5.2mph /  8.4km/h 9.2mph /  14.8km/h 75.6% 0in /  0.0mm
09:24 45.9 °F /  7.7 °C 38.1 °F /  3.4 °C 30.1in /  1018.1hPa SSE 5.7mph /  9.2km/h 10.7mph /  17.2km/h 74.4% 0in /  0.0mm
09:29 46 °F /  7.8 °C 38.3 °F /  3.5 °C 30.1in /  1018.0hPa SE 6.2mph /  10km/h 12.5mph /  20.1km/h 74.2% 0in /  0.0mm
09:34 45.9 °F /  7.7 °C 38.5 °F /  3.6 °C 30.1in /  1018.0hPa SE 6.8mph /  11km/h 13mph /  20.9km/h 75.4% 0in /  0.0mm
09:39 45.5 °F /  7.5 °C 38.5 °F /  3.6 °C 30.1in /  1018.0hPa SE 7.4mph /  11.9km/h 13mph /  20.9km/h 76.3% 0in /  0.0mm
09:44 45.3 °F /  7.4 °C 38.5 °F /  3.6 °C 30in /  1016.9hPa ESE 6.8mph /  11km/h 9mph /  14.5km/h 77% 0in /  0.0mm
09:49 45.3 °F /  7.4 °C 38.5 °F /  3.6 °C 30in /  1016.9hPa Este 6.2mph /  10km/h 9mph /  14.5km/h 77% 0in /  0.0mm
09:54 45.3 °F /  7.4 °C 38.7 °F /  3.7 °C 30in /  1016.9hPa ENE 5.5mph /  8.8km/h 9mph /  14.5km/h 77% 0in /  0.0mm
09:59 45.7 °F /  7.6 °C 38.8 °F /  3.8 °C 30in /  1015.4hPa NE 4.7mph /  7.6km/h 7mph /  11.3km/h 77% 0in /  0.0mm
10:04 46 °F /  7.8 °C 39.2 °F /  4 °C 30in /  1015.4hPa NO 4.1mph /  6.6km/h 10.4mph /  16.7km/h 77% 0in /  0.0mm
10:09 46.2 °F /  7.9 °C 39.4 °F /  4.1 °C 30in /  1015.4hPa NO 3.6mph /  5.8km/h 10mph /  16.1km/h 76.8% 0in /  0.0mm
10:14 46.4 °F /  8 °C 39.4 °F /  4.1 °C 30in /  1015.4hPa NNO 4.5mph /  7.2km/h 9mph /  14.5km/h 76.6% 0in /  0.0mm
10:19 46.4 °F /  8 °C 39.6 °F /  4.2 °C 30in /  1015.4hPa NNO 5.4mph /  8.7km/h 9.2mph /  14.8km/h 77% 0in /  0.0mm
10:24 46.6 °F /  8.1 °C 39.7 °F /  4.3 °C 30in /  1015.8hPa ONO 5mph /  8.1km/h 9.2mph /  14.8km/h 77% 0in /  0.0mm
10:29 46.8 °F /  8.2 °C 39.9 °F /  4.4 °C 30in /  1015.8hPa ONO 4.7mph /  7.6km/h 11.8mph /  19km/h 77% 0in /  0.0mm
10:34 46.9 °F /  8.3 °C 39.9 °F /  4.4 °C 30in /  1015.8hPa Oeste 5.5mph /  8.8km/h 12mph /  19.3km/h 76.4% 0in /  0.0mm
10:39 47.3 °F /  8.5 °C 39.9 °F /  4.4 °C 30in /  1016.1hPa Oeste 6.2mph /  10km/h 9mph /  14.5km/h 75.2% 0in /  0.0mm
10:44 47.7 °F /  8.7 °C 39.9 °F /  4.4 °C 30in /  1016.1hPa Oeste 4.5mph /  7.3km/h 7mph /  11.3km/h 74% 0in /  0.0mm
10:49 48 °F /  8.9 °C 39.7 °F /  4.3 °C 30in /  1016.1hPa SO 3.1mph /  5km/h 5mph /  8km/h 72.7% 0in /  0.0mm
10:54 48.2 °F /  9 °C 39.6 °F /  4.2 °C 30in /  1016.1hPa OSO 3mph /  4.8km/h 5mph /  8km/h 71.7% 0in /  0.0mm
10:59 48.6 °F /  9.2 °C 39.6 °F /  4.2 °C 30in /  1015.8hPa ONO 2.9mph /  4.7km/h 5mph /  8km/h 71% 0in /  0.0mm
11:04 48.7 °F /  9.3 °C 39.7 °F /  4.3 °C 30in /  1015.8hPa NNO 2.3mph /  3.7km/h 4.6mph /  7.4km/h 71% 0in /  0.0mm
11:09 48.9 °F /  9.4 °C 39.9 °F /  4.4 °C 30in /  1015.8hPa NNE 1.8mph /  2.9km/h 5.2mph /  8.4km/h 71% 0in /  0.0mm
11:14 49.1 °F /  9.5 °C 39.7 °F /  4.3 °C 30in /  1015.6hPa NNO 2.1mph /  3.4km/h 5mph /  8km/h 70.1% 0in /  0.0mm
11:19 49.3 °F /  9.6 °C 39.9 °F /  4.4 °C 30in /  1015.6hPa NNO 2.4mph /  3.9km/h 5mph /  8km/h 70% 0in /  0.0mm
11:24 49.5 °F /  9.7 °C 40.1 °F /  4.5 °C 30in /  1016.7hPa ONO 2.2mph /  3.5km/h 6.4mph /  10.3km/h 70% 0in /  0.0mm
11:29 49.6 °F /  9.8 °C 40.3 °F /  4.6 °C 30in /  1016.7hPa Oeste 2mph /  3.2km/h 7mph /  11.3km/h 70% 0in /  0.0mm
11:34 50 °F /  10 °C 40.6 °F /  4.8 °C 30in /  1016.7hPa SSO 2.5mph /  4.1km/h 7mph /  11.3km/h 70% 0in /  0.0mm
11:39 50.5 °F /  10.3 °C 40.6 °F /  4.8 °C 30in /  1016.8hPa SSE 3.1mph /  5km/h 9.2mph /  14.8km/h 68.9% 0in /  0.0mm
11:44 50.9 °F /  10.5 °C 40.6 °F /  4.8 °C 30in /  1016.8hPa SSE 4.7mph /  7.5km/h 12.7mph /  20.4km/h 68% 0in /  0.0mm
11:49 50.9 °F /  10.5 °C 41 °F /  5 °C 30in /  1016.8hPa SSE 6.2mph /  10km/h 14mph /  22.5km/h 68.4% 0in /  0.0mm
11:54 50.5 °F /  10.3 °C 41 °F /  5 °C 30in /  1016.8hPa SSE 7.1mph /  11.5km/h 14mph /  22.5km/h 69.8% 0in /  0.0mm
11:59 50.2 °F /  10.1 °C 41 °F /  5 °C 30in /  1016.7hPa SSO 8.1mph /  13km/h 13mph /  20.9km/h 70.5% 0in /  0.0mm
12:04 50.2 °F /  10.1 °C 40.8 °F /  4.9 °C 30in /  1016.7hPa SSO 6.9mph /  11.1km/h 9mph /  14.5km/h 70% 0in /  0.0mm
12:09 50.4 °F /  10.2 °C 41 °F /  5 °C 30in /  1016.9hPa SO 5.9mph /  9.5km/h 8mph /  12.9km/h 70% 0in /  0.0mm
12:14 50.7 °F /  10.4 °C 41 °F /  5 °C 30in /  1016.9hPa SO 5mph /  8km/h 7mph /  11.3km/h 69.1% 0in /  0.0mm
12:19 51.3 °F /  10.7 °C 41.4 °F /  5.2 °C 30in /  1016.9hPa SO 4mph /  6.5km/h 7mph /  11.3km/h 68.9% 0in /  0.0mm
12:24 51.4 °F /  10.8 °C 41.2 °F /  5.1 °C 30in /  1016.9hPa SSO 4mph /  6.5km/h 7mph /  11.3km/h 68.1% 0in /  0.0mm
12:29 51.6 °F /  10.9 °C 41.2 °F /  5.1 °C 30in /  1016.7hPa Sur 4mph /  6.5km/h 7.4mph /  11.9km/h 67.4% 0in /  0.0mm
12:34 52 °F /  11.1 °C 41.2 °F /  5.1 °C 30in /  1016.7hPa SSE 4.4mph /  7.1km/h 8.1mph /  13km/h 66.4% 0in /  0.0mm
12:39 52.2 °F /  11.2 °C 41 °F /  5 °C 30in /  1016.7hPa SSO 4.7mph /  7.6km/h 8mph /  12.9km/h 66% 0in /  0.0mm
12:44 52.2 °F /  11.2 °C 41 °F /  5 °C 30in /  1016.1hPa SO 4.3mph /  7km/h 6mph /  9.7km/h 65.5% 0in /  0.0mm
12:49 52.3 °F /  11.3 °C 41 °F /  5 °C 30in /  1016.1hPa OSO 4mph /  6.5km/h 6.2mph /  10km/h 65% 0in /  0.0mm
12:54 52.5 °F /  11.4 °C 41.2 °F /  5.1 °C 30in /  1016.1hPa SSO 3.8mph /  6.1km/h 6mph /  9.7km/h 65% 0in /  0.0mm
12:59 52.7 °F /  11.5 °C 41.4 °F /  5.2 °C 30in /  1016.0hPa SSO 3.6mph /  5.8km/h 6.9mph /  11.1km/h 65.4% 0in /  0.0mm
13:04 52.7 °F /  11.5 °C 41.4 °F /  5.2 °C 30in /  1016.0hPa SSO 4mph /  6.4km/h 7mph /  11.3km/h 65.1% 0in /  0.0mm
13:09 52.9 °F /  11.6 °C 41.7 °F /  5.4 °C 30in /  1016.0hPa Sur 4.3mph /  6.9km/h 7mph /  11.3km/h 65.7% 0in /  0.0mm
13:14 52.9 °F /  11.6 °C 41.5 °F /  5.3 °C 30in /  1016.0hPa SSE 4.3mph /  6.9km/h 8.1mph /  13km/h 65.1% 0in /  0.0mm
13:19 53.1 °F /  11.7 °C 41.5 °F /  5.3 °C 30in /  1016.0hPa SSE 4.3mph /  6.9km/h 8mph /  12.9km/h 65% 0in /  0.0mm
13:24 53.1 °F /  11.7 °C 41.9 °F /  5.5 °C 30in /  1016.0hPa Sur 4.5mph /  7.3km/h 6.2mph /  10km/h 65.9% 0in /  0.0mm
13:29 53.1 °F /  11.7 °C 41.9 °F /  5.5 °C 30in /  1015.9hPa SSO 4.7mph /  7.6km/h 6mph /  9.7km/h 66% 0in /  0.0mm
13:34 53.1 °F /  11.7 °C 41.9 °F /  5.5 °C 30in /  1015.9hPa Sur 4.2mph /  6.7km/h 6mph /  9.7km/h 66% 0in /  0.0mm
13:39 53.1 °F /  11.7 °C 42.1 °F /  5.6 °C 30in /  1015.9hPa Sur 3.6mph /  5.8km/h 5.4mph /  8.7km/h 66% 0in /  0.0mm
13:44 53.1 °F /  11.7 °C 42.1 °F /  5.6 °C 30in /  1015.4hPa SE 3.4mph /  5.4km/h 6mph /  9.7km/h 66% 0in /  0.0mm
13:49 53.2 °F /  11.8 °C 42.3 °F /  5.7 °C 30in /  1015.4hPa SSE 3.1mph /  5km/h 6mph /  9.7km/h 66% 0in /  0.0mm
13:54 53.2 °F /  11.8 °C 41.9 °F /  5.5 °C 30in /  1015.4hPa SSE 3.4mph /  5.4km/h 6mph /  9.7km/h 65.3% 0in /  0.0mm
13:59 53.4 °F /  11.9 °C 41.9 °F /  5.5 °C 30in /  1015.1hPa ESE 3.6mph /  5.8km/h 5mph /  8km/h 65.2% 0in /  0.0mm
14:04 53.4 °F /  11.9 °C 41.9 °F /  5.5 °C 30in /  1015.1hPa Este 3mph /  4.8km/h 5mph /  8km/h 65% 0in /  0.0mm
14:09 53.6 °F /  12 °C 42.1 °F /  5.6 °C 30in /  1015.1hPa Este 2.4mph /  3.9km/h 3.5mph /  5.6km/h 65.2% 0in /  0.0mm
14:14 53.8 °F /  12.1 °C 42.4 °F /  5.8 °C 30in /  1015.1hPa ONO 2.1mph /  3.4km/h 4.7mph /  7.6km/h 65.4% 0in /  0.0mm
14:19 53.8 °F /  12.1 °C 43.2 °F /  6.2 °C 30in /  1015.1hPa North 1.8mph /  2.9km/h 5mph /  8km/h 67.1% 0in /  0.0mm
14:24 53.8 °F /  12.1 °C 43.3 °F /  6.3 °C 30in /  1015.1hPa North 2.4mph /  3.8km/h 6.2mph /  10km/h 67.6% 0in /  0.0mm
14:29 53.4 °F /  11.9 °C 43.5 °F /  6.4 °C 30in /  1014.5hPa ENE 2.9mph /  4.7km/h 6mph /  9.7km/h 69% 0in /  0.0mm
14:34 53.4 °F /  11.9 °C 43.7 °F /  6.5 °C 30in /  1014.5hPa ENE 2.6mph /  4.2km/h 5mph /  8km/h 69.3% 0in /  0.0mm
14:39 53.4 °F /  11.9 °C 43.9 °F /  6.6 °C 30in /  1014.5hPa NE 2.4mph /  3.9km/h 5mph /  8km/h 70% 0in /  0.0mm
14:44 53.2 °F /  11.8 °C 44.1 °F /  6.7 °C 29.9in /  1013.5hPa NE 2.4mph /  3.9km/h 5mph /  8km/h 71% 0in /  0.0mm
14:49 53.2 °F /  11.8 °C 44.2 °F /  6.8 °C 29.9in /  1013.5hPa Este 2.4mph /  3.9km/h 5mph /  8km/h 71.4% 0in /  0.0mm
14:54 53.2 °F /  11.8 °C 44.2 °F /  6.8 °C 29.9in /  1013.5hPa Este 2.4mph /  3.9km/h 5mph /  8km/h 71.7% 0in /  0.0mm
14:59 53.2 °F /  11.8 °C 44.4 °F /  6.9 °C 29.9in /  1012.9hPa ENE 2.4mph /  3.9km/h 5mph /  8km/h 72% 0in /  0.0mm
15:04 53.1 °F /  11.7 °C 44.1 °F /  6.7 °C 29.9in /  1012.9hPa NE 2.1mph /  3.3km/h 5mph /  8km/h 71.5% 0in /  0.0mm
15:09 53.2 °F /  11.8 °C 44.1 °F /  6.7 °C 29.9in /  1013.2hPa Oeste 1.8mph /  2.9km/h 3.5mph /  5.6km/h 71% 0in /  0.0mm
15:14 53.2 °F /  11.8 °C 44.2 °F /  6.8 °C 29.9in /  1013.2hPa ONO 1.8mph /  2.9km/h 3.1mph /  5km/h 71.5% 0in /  0.0mm
15:19 53.2 °F /  11.8 °C 44.1 °F /  6.7 °C 29.9in /  1013.2hPa NNO 1.8mph /  2.9km/h 4.6mph /  7.4km/h 70.8% 0in /  0.0mm
15:24 53.2 °F /  11.8 °C 43.7 °F /  6.5 °C 29.9in /  1013.2hPa NE 1.8mph /  2.9km/h 5mph /  8km/h 70.2% 0in /  0.0mm
15:29 53.2 °F /  11.8 °C 43.9 °F /  6.6 °C 29.9in /  1013.0hPa North 1.8mph /  2.9km/h 6.4mph /  10.3km/h 70.2% 0in /  0.0mm
15:34 53.4 °F /  11.9 °C 44.2 °F /  6.8 °C 29.9in /  1013.0hPa ONO 2.4mph /  3.8km/h 7mph /  11.3km/h 71.1% 0in /  0.0mm
15:39 53.4 °F /  11.9 °C 44.4 °F /  6.9 °C 29.9in /  1013.6hPa SSO 2.9mph /  4.7km/h 8.5mph /  13.7km/h 71.8% 0in /  0.0mm
15:44 53.4 °F /  11.9 °C 44.1 °F /  6.7 °C 29.9in /  1013.6hPa SSO 3.6mph /  5.8km/h 9mph /  14.5km/h 70.6% 0in /  0.0mm
15:49 53.6 °F /  12 °C 44.1 °F /  6.7 °C 29.9in /  1013.6hPa SSO 4.3mph /  6.9km/h 7mph /  11.3km/h 70% 0in /  0.0mm
15:54 54.1 °F /  12.3 °C 44.2 °F /  6.8 °C 29.9in /  1014.0hPa SSO 4.3mph /  6.9km/h 7mph /  11.3km/h 69.4% 0in /  0.0mm
15:59 54.3 °F /  12.4 °C 44.6 °F /  7 °C 29.9in /  1014.0hPa OSO 4.3mph /  6.9km/h 6mph /  9.7km/h 70% 0in /  0.0mm
16:04 54.5 °F /  12.5 °C 45.1 °F /  7.3 °C 29.9in /  1014.0hPa SSO 3.7mph /  5.9km/h 6mph /  9.7km/h 70.6% 0in /  0.0mm
16:09 54.5 °F /  12.5 °C 45.3 °F /  7.4 °C 29.9in /  1014.0hPa SSO 3.1mph /  5km/h 5mph /  8km/h 71% 0in /  0.0mm
16:14 54.5 °F /  12.5 °C 45.3 °F /  7.4 °C 29.9in /  1013.3hPa Oeste 2.7mph /  4.4km/h 5.8mph /  9.3km/h 71% 0in /  0.0mm
16:19 54.3 °F /  12.4 °C 45.1 °F /  7.3 °C 29.9in /  1013.3hPa SSO 2.4mph /  3.9km/h 6mph /  9.7km/h 71% 0in /  0.0mm
16:24 54.1 °F /  12.3 °C 45 °F /  7.2 °C 29.9in /  1013.4hPa SSO 2.7mph /  4.4km/h 6mph /  9.7km/h 71% 0in /  0.0mm
16:29 54.1 °F /  12.3 °C 45 °F /  7.2 °C 29.9in /  1013.4hPa OSO 3.1mph /  5km/h 5mph /  8km/h 71% 0in /  0.0mm
16:34 54.1 °F /  12.3 °C 45 °F /  7.2 °C 29.9in /  1013.4hPa SSO 2.7mph /  4.4km/h 6.9mph /  11.1km/h 71% 0in /  0.0mm
16:39 54.1 °F /  12.3 °C 45 °F /  7.2 °C 29.9in /  1013.5hPa SSE 2.4mph /  3.9km/h 7mph /  11.3km/h 71% 0in /  0.0mm
16:44 54.1 °F /  12.3 °C 45 °F /  7.2 °C 29.9in /  1013.5hPa SSE 3mph /  4.9km/h 7mph /  11.3km/h 71% 0in /  0.0mm
16:49 54.1 °F /  12.3 °C 45 °F /  7.2 °C 29.9in /  1013.5hPa SSE 3.6mph /  5.8km/h 6.2mph /  10km/h 71% 0in /  0.0mm
16:54 54.1 °F /  12.3 °C 45.1 °F /  7.3 °C 29.9in /  1013.5hPa SE 3.9mph /  6.3km/h 6mph /  9.7km/h 71.7% 0in /  0.0mm
16:59 54.1 °F /  12.3 °C 45.1 °F /  7.3 °C 29.9in /  1013.2hPa SO 4.3mph /  6.9km/h 6mph /  9.7km/h 71.6% 0in /  0.0mm
17:04 54.1 °F /  12.3 °C 45 °F /  7.2 °C 29.9in /  1013.2hPa OSO 3.5mph /  5.7km/h 6mph /  9.7km/h 71.3% 0in /  0.0mm
17:09 54.1 °F /  12.3 °C 45.3 °F /  7.4 °C 29.9in /  1013.2hPa SSO 2.9mph /  4.6km/h 5mph /  8km/h 72% 0in /  0.0mm
17:14 54.1 °F /  12.3 °C 45.1 °F /  7.3 °C 29.9in /  1013.2hPa Sur 2.1mph /  3.4km/h 3.6mph /  5.8km/h 72% 0in /  0.0mm
17:19 54 °F /  12.2 °C 45.1 °F /  7.3 °C 29.9in /  1013.2hPa ESE 1.4mph /  2.2km/h 4mph /  6.4km/h 72% 0in /  0.0mm
17:24 54 °F /  12.2 °C 45.1 °F /  7.3 °C 29.9in /  1013.5hPa ESE 1.6mph /  2.6km/h 4.6mph /  7.4km/h 72% 0in /  0.0mm
17:29 54 °F /  12.2 °C 45.1 °F /  7.3 °C 29.9in /  1013.5hPa ONO 1.8mph /  2.9km/h 5mph /  8km/h 72% 0in /  0.0mm
17:34 54 °F /  12.2 °C 45.3 °F /  7.4 °C 29.9in /  1013.5hPa ONO 1.8mph /  2.9km/h 3mph /  4.8km/h 72.5% 0in /  0.0mm
17:39 54 °F /  12.2 °C 45.5 °F /  7.5 °C 29.9in /  1013.5hPa ONO 1.8mph /  2.9km/h 2.4mph /  3.9km/h 73% 0in /  0.0mm
17:44 54 °F /  12.2 °C 45.5 °F /  7.5 °C 29.9in /  1013.5hPa ONO 0.9mph /  1.4km/h 2.9mph /  4.7km/h 73% 0in /  0.0mm
17:49 53.8 °F /  12.1 °C 45.3 °F /  7.4 °C 29.9in /  1013.5hPa Calm   3.5mph /  5.6km/h 73% 0in /  0.0mm
17:54 53.8 °F /  12.1 °C 45.3 °F /  7.4 °C 29.9in /  1013.5hPa ONO 0.9mph /  1.4km/h 3mph /  4.8km/h 73% 0in /  0.0mm
17:59 53.6 °F /  12 °C 45.3 °F /  7.4 °C 29.9in /  1013.5hPa ONO 1.8mph /  2.9km/h 2.4mph /  3.9km/h 73.5% 0in /  0.0mm
18:04 53.4 °F /  11.9 °C 45.3 °F /  7.4 °C 29.9in /  1013.5hPa ONO 1.6mph /  2.5km/h 2mph /  3.2km/h 74% 0in /  0.0mm
18:09 53.4 °F /  11.9 °C 45.3 °F /  7.4 °C 29.9in /  1013.6hPa ONO 1.4mph /  2.2km/h 2.9mph /  4.7km/h 74% 0in /  0.0mm
18:14 53.4 °F /  11.9 °C 45.3 °F /  7.4 °C 29.9in /  1013.6hPa SE 1.6mph /  2.6km/h 4.7mph /  7.6km/h 74% 0in /  0.0mm
18:19 53.2 °F /  11.8 °C 45.1 °F /  7.3 °C 29.9in /  1013.6hPa ESE 1.8mph /  2.9km/h 5mph /  8km/h 74% 0in /  0.0mm
18:24 53.1 °F /  11.7 °C 45.1 °F /  7.3 °C 29.9in /  1013.6hPa SE 2.1mph /  3.4km/h 5.9mph /  9.5km/h 74% 0in /  0.0mm
18:29 52.9 °F /  11.6 °C 44.8 °F /  7.1 °C 29.9in /  1013.5hPa SE 2.4mph /  3.9km/h 6mph /  9.7km/h 74% 0in /  0.0mm
18:34 52.7 °F /  11.5 °C 45 °F /  7.2 °C 29.9in /  1013.5hPa SSE 2.7mph /  4.4km/h 6.2mph /  10km/h 75% 0in /  0.0mm
18:39 52.5 °F /  11.4 °C 44.8 °F /  7.1 °C 29.9in /  1013.5hPa SSE 3.1mph /  5km/h 6mph /  9.7km/h 75% 0in /  0.0mm
18:44 52.5 °F /  11.4 °C 44.8 °F /  7.1 °C 29.9in /  1013.5hPa SE 3.1mph /  5km/h 6mph /  9.7km/h 75% 0in /  0.0mm
18:49 52.3 °F /  11.3 °C 44.6 °F /  7 °C 29.9in /  1013.5hPa ESE 3.1mph /  5km/h 5mph /  8km/h 75% 0in /  0.0mm
18:54 52.3 °F /  11.3 °C 44.6 °F /  7 °C 29.9in /  1013.5hPa ESE 2.5mph /  4.1km/h 4mph /  6.4km/h 75% 0in /  0.0mm
18:59 52.2 °F /  11.2 °C 44.6 °F /  7 °C 29.9in /  1013.1hPa ESE 2mph /  3.2km/h 4mph /  6.4km/h 75.2% 0in /  0.0mm
19:04 52.2 °F /  11.2 °C 44.8 °F /  7.1 °C 29.9in /  1013.1hPa ENE 1.7mph /  2.7km/h 4.6mph /  7.4km/h 76% 0in /  0.0mm
19:09 52 °F /  11.1 °C 44.6 °F /  7 °C 29.9in /  1013.1hPa NNE 1.4mph /  2.2km/h 5mph /  8km/h 76% 0in /  0.0mm
19:14 51.8 °F /  11 °C 45 °F /  7.2 °C 29.9in /  1012.5hPa NNE 1.6mph /  2.6km/h 3.5mph /  5.6km/h 77% 0in /  0.0mm
19:19 51.8 °F /  11 °C 44.8 °F /  7.1 °C 29.9in /  1012.5hPa NNE 1.8mph /  2.9km/h 3.6mph /  5.8km/h 77% 0in /  0.0mm
19:24 51.8 °F /  11 °C 44.8 °F /  7.1 °C 29.9in /  1012.6hPa NNO 1.9mph /  3.1km/h 5.8mph /  9.3km/h 77% 0in /  0.0mm
19:29 51.6 °F /  10.9 °C 44.8 °F /  7.1 °C 29.9in /  1012.6hPa NO 2mph /  3.2km/h 6mph /  9.7km/h 77.5% 0in /  0.0mm
19:34 51.3 °F /  10.7 °C 44.8 °F /  7.1 °C 29.9in /  1012.6hPa NO 2.5mph /  4km/h 5mph /  8km/h 78.4% 0in /  0.0mm
19:39 51.1 °F /  10.6 °C 44.8 °F /  7.1 °C 29.9in /  1012.6hPa NNO 2.9mph /  4.6km/h 5.2mph /  8.4km/h 79.2% 0in /  0.0mm
19:44 50.7 °F /  10.4 °C 44.8 °F /  7.1 °C 29.9in /  1012.5hPa NNE 2.6mph /  4.2km/h 5.2mph /  8.4km/h 80% 0in /  0.0mm
19:49 50.5 °F /  10.3 °C 45 °F /  7.2 °C 29.9in /  1012.5hPa North 2.4mph /  3.9km/h 5mph /  8km/h 81% 0in /  0.0mm
19:54 50.4 °F /  10.2 °C 45 °F /  7.2 °C 29.9in /  1012.5hPa Oeste 2.4mph /  3.9km/h 5.2mph /  8.4km/h 81.5% 0in /  0.0mm
19:59 50.4 °F /  10.2 °C 45.1 °F /  7.3 °C 29.9in /  1012.5hPa SO 2.4mph /  3.9km/h 5.2mph /  8.4km/h 82% 0in /  0.0mm
20:04 50.4 °F /  10.2 °C 45.3 °F /  7.4 °C 29.9in /  1012.5hPa OSO 2.8mph /  4.5km/h 5mph /  8km/h 83% 0in /  0.0mm
20:09 50.4 °F /  10.2 °C 45.5 °F /  7.5 °C 29.9in /  1012.6hPa Sur 3.1mph /  5km/h 5mph /  8km/h 83% 0in /  0.0mm
20:14 50.5 °F /  10.3 °C 45.7 °F /  7.6 °C 29.9in /  1012.6hPa SSE 3mph /  4.8km/h 5mph /  8km/h 83% 0in /  0.0mm
20:19 50.7 °F /  10.4 °C 45.7 °F /  7.6 °C 29.9in /  1012.6hPa SSE 2.9mph /  4.7km/h 5mph /  8km/h 83% 0in /  0.0mm
20:24 50.7 °F /  10.4 °C 45.5 °F /  7.5 °C 29.9in /  1012.6hPa Sur 2.6mph /  4.2km/h 5.4mph /  8.7km/h 82.2% 0in /  0.0mm
20:29 50.7 °F /  10.4 °C 45.1 °F /  7.3 °C 29.9in /  1012.5hPa Sur 2.4mph /  3.9km/h 6.2mph /  10km/h 81.6% 0in /  0.0mm
20:34 50.5 °F /  10.3 °C 45.1 °F /  7.3 °C 29.9in /  1012.5hPa Sur 3.2mph /  5.1km/h 6mph /  9.7km/h 81.8% 0in /  0.0mm
20:39 50.4 °F /  10.2 °C 45.1 °F /  7.3 °C 29.9in /  1012.5hPa ESE 4mph /  6.5km/h 6.2mph /  10km/h 82% 0in /  0.0mm
20:44 50.4 °F /  10.2 °C 45 °F /  7.2 °C 29.9in /  1012.5hPa SE 3.8mph /  6.1km/h 6.9mph /  11.1km/h 82% 0in /  0.0mm
20:49 50 °F /  10 °C 44.8 °F /  7.1 °C 29.9in /  1012.5hPa SSE 3.6mph /  5.8km/h 7mph /  11.3km/h 82.4% 0in /  0.0mm
20:54 49.8 °F /  9.9 °C 45 °F /  7.2 °C 29.9in /  1012.6hPa SSO 3.8mph /  6.1km/h 7mph /  11.3km/h 83% 0in /  0.0mm
20:59 50 °F /  10 °C 45.1 °F /  7.3 °C 29.9in /  1012.6hPa SSE 4mph /  6.5km/h 7.4mph /  11.9km/h 83% 0in /  0.0mm
21:04 50.2 °F /  10.1 °C 45.1 °F /  7.3 °C 29.9in /  1012.6hPa Sur 4.2mph /  6.7km/h 8.5mph /  13.7km/h 83% 0in /  0.0mm
21:09 50.4 °F /  10.2 °C 45.1 °F /  7.3 °C 29.9in /  1012.6hPa Sur 4.3mph /  6.9km/h 9mph /  14.5km/h 82.4% 0in /  0.0mm
21:14 50.4 °F /  10.2 °C 45.1 °F /  7.3 °C 29.9in /  1012.2hPa Sur 4.7mph /  7.6km/h 8.1mph /  13km/h 82% 0in /  0.0mm
21:19 50.5 °F /  10.3 °C 45.1 °F /  7.3 °C 29.9in /  1012.2hPa SSE 5.2mph /  8.4km/h 8mph /  12.9km/h 82% 0in /  0.0mm
21:24 50.5 °F /  10.3 °C 45.1 °F /  7.3 °C 29.9in /  1012.2hPa Sur 4.3mph /  7km/h 6mph /  9.7km/h 82% 0in /  0.0mm
21:29 50.5 °F /  10.3 °C 45.1 °F /  7.3 °C 29.9in /  1011.8hPa Sur 3.6mph /  5.8km/h 5mph /  8km/h 82% 0in /  0.0mm
21:34 50.7 °F /  10.4 °C 45.1 °F /  7.3 °C 29.9in /  1011.8hPa Oeste 3mph /  4.8km/h 6.2mph /  10km/h 81.2% 0in /  0.0mm
21:39 50.7 °F /  10.4 °C 45.1 °F /  7.3 °C 29.9in /  1011.8hPa OSO 2.4mph /  3.9km/h 6.9mph /  11.1km/h 81% 0in /  0.0mm
21:44 50.7 °F /  10.4 °C 45.1 °F /  7.3 °C 29.9in /  1011.8hPa Oeste 2.7mph /  4.3km/h 7mph /  11.3km/h 81% 0in /  0.0mm
21:49 50.7 °F /  10.4 °C 45.3 °F /  7.4 °C 29.9in /  1011.8hPa ONO 2.9mph /  4.6km/h 5.8mph /  9.3km/h 81.5% 0in /  0.0mm
21:54 50.5 °F /  10.3 °C 45.3 °F /  7.4 °C 29.9in /  1011.8hPa ONO 2.4mph /  3.9km/h 6mph /  9.7km/h 82% 0in /  0.0mm
21:59 50.5 °F /  10.3 °C 45.1 °F /  7.3 °C 29.9in /  1011.4hPa ONO 2mph /  3.2km/h 3mph /  4.8km/h 82% 0in /  0.0mm
22:04 50.5 °F /  10.3 °C 45.1 °F /  7.3 °C 29.9in /  1011.4hPa ONO 1.7mph /  2.7km/h 3.5mph /  5.6km/h 82% 0in /  0.0mm
22:09 50.5 °F /  10.3 °C 45.1 °F /  7.3 °C 29.9in /  1011.4hPa ONO 1.4mph /  2.2km/h 5.2mph /  8.4km/h 82% 0in /  0.0mm
22:14 50.5 °F /  10.3 °C 45.3 °F /  7.4 °C 29.9in /  1011.4hPa NO 1.9mph /  3.1km/h 5mph /  8km/h 82.5% 0in /  0.0mm
22:19 50.4 °F /  10.2 °C 45.3 °F /  7.4 °C 29.9in /  1011.4hPa NO 2.4mph /  3.9km/h 5mph /  8km/h 83% 0in /  0.0mm
22:24 50.2 °F /  10.1 °C 45.1 °F /  7.3 °C 29.9in /  1011.4hPa NO 2.2mph /  3.5km/h 5mph /  8km/h 83.2% 0in /  0.0mm
22:29 49.8 °F /  9.9 °C 45.1 °F /  7.3 °C 29.9in /  1011.2hPa NO 2mph /  3.2km/h 5.9mph /  9.5km/h 84% 0in /  0.0mm
22:34 49.6 °F /  9.8 °C 45.1 °F /  7.3 °C 29.9in /  1011.2hPa ONO 2.8mph /  4.5km/h 7.4mph /  11.9km/h 84.5% 0in /  0.0mm
22:39 49.6 °F /  9.8 °C 45.3 °F /  7.4 °C 29.9in /  1011.3hPa Oeste 3.6mph /  5.8km/h 7mph /  11.3km/h 85% 0in /  0.0mm
22:44 49.6 °F /  9.8 °C 45.5 °F /  7.5 °C 29.9in /  1011.3hPa Sur 3.8mph /  6.1km/h 8.5mph /  13.7km/h 85.5% 0in /  0.0mm
22:49 49.8 °F /  9.9 °C 45.5 °F /  7.5 °C 29.9in /  1011.3hPa SE 4mph /  6.5km/h 9mph /  14.5km/h 85.1% 0in /  0.0mm
22:54 49.6 °F /  9.8 °C 45.3 °F /  7.4 °C 29.9in /  1011.3hPa SE 5mph /  8.1km/h 9.2mph /  14.8km/h 85% 0in /  0.0mm
22:59 49.6 °F /  9.8 °C 45.3 °F /  7.4 °C 29.9in /  1010.9hPa SE 5.9mph /  9.5km/h 9mph /  14.5km/h 85% 0in /  0.0mm
23:04 49.6 °F /  9.8 °C 45.3 °F /  7.4 °C 29.9in /  1010.9hPa SSO 5.2mph /  8.4km/h 7.4mph /  11.9km/h 85% 0in /  0.0mm
23:09 49.6 °F /  9.8 °C 45.3 °F /  7.4 °C 29.9in /  1010.9hPa Oeste 4.7mph /  7.6km/h 9.2mph /  14.8km/h 85% 0in /  0.0mm
23:14 49.6 °F /  9.8 °C 45.3 °F /  7.4 °C 29.9in /  1010.8hPa ONO 4.7mph /  7.6km/h 9mph /  14.5km/h 85% 0in /  0.0mm
23:19 49.6 °F /  9.8 °C 45.3 °F /  7.4 °C 29.9in /  1010.8hPa Oeste 4.7mph /  7.6km/h 7mph /  11.3km/h 85% 0in /  0.0mm
23:24 49.8 °F /  9.9 °C 45.5 °F /  7.5 °C 29.9in /  1010.8hPa Oeste 3.9mph /  6.2km/h 6mph /  9.7km/h 85% 0in /  0.0mm
23:29 49.8 °F /  9.9 °C 45.5 °F /  7.5 °C 29.8in /  1010.6hPa Oeste 3.1mph /  5km/h 5mph /  8km/h 85% 0in /  0.0mm
23:34 49.8 °F /  9.9 °C 45.5 °F /  7.5 °C 29.8in /  1010.6hPa NO 2.7mph /  4.3km/h 6.9mph /  11.1km/h 85% 0in /  0.0mm
23:39 49.8 °F /  9.9 °C 45.5 °F /  7.5 °C 29.8in /  1010.6hPa SE 2.4mph /  3.9km/h 7mph /  11.3km/h 85% 0in /  0.0mm
23:44 49.8 °F /  9.9 °C 45.5 °F /  7.5 °C 29.8in /  1010.4hPa OSO 2.7mph /  4.3km/h 6mph /  9.7km/h 85% 0in /  0.0mm
23:49 49.8 °F /  9.9 °C 45.5 °F /  7.5 °C 29.8in /  1010.4hPa OSO 2.9mph /  4.7km/h 4mph /  6.4km/h 85% 0in /  0.0mm
23:54 49.8 °F /  9.9 °C 45.5 °F /  7.5 °C 29.8in /  1010.4hPa OSO 2.2mph /  3.5km/h 3.6mph /  5.8km/h 85% 0in /  0.0mm
23:59 49.8 °F /  9.9 °C 45.7 °F /  7.6 °C 29.8in /  1010.2hPa ONO 1.4mph /  2.2km/h 8.1mph /  13km/h 85% 0in /  0.0mm
Murcia-Puente Tocinos, España
Compliments of Weather Underground - 3 mb

La estación de MeteoMurcia.com, publica sus datos en los siguientes proyectos:

Weather Underground PWS IMURCIAP2 Meteoclimatic www.awekas.at

W3Counter
Web Analytics